Lewiston, Minnesota
Current Conditions -  °F | °C
As of 6:34 AM on Sunday 21 Dec 2014 (Local Time) from KONA Reporting Station
Haze Haze  
Wind Chill: 28°   Ceiling: 800
Heat Index: 34°   Visibility: 3mi
Dew Point: 32°   Wind: 7mph
Humidity: 93%   Direction: 130°SE
Pressure: 30.01"   Gusts: NA
Location:  43.98°N, 91.87°W
Report Text: KONA 211234Z AUTO 13006KT 3SM BR OVC008 01/00 A3001 RMK AO2
Loading
Personal Weather Stations






























Interactive Weather Map New forecast layout! Learn more

10-Day Weather Forecast

Advertisements
Track Severe Weather on mobile